sensor_id;sensor_type;location;lat;lon;timestamp;P1;durP1;ratioP1;P2;durP2;ratioP2
21927;SDS011;11128;51.096;17.190;2023-02-12T00:00:31;36.97;;;16.58;;
21927;SDS011;11128;51.096;17.190;2023-02-12T00:05:33;34.83;;;15.75;;
21927;SDS011;11128;51.096;17.190;2023-02-12T00:10:41;36.22;;;14.73;;
21927;SDS011;11128;51.096;17.190;2023-02-12T00:15:43;32.88;;;15.15;;
21927;SDS011;11128;51.096;17.190;2023-02-12T00:20:45;34.35;;;15.68;;
21927;SDS011;11128;51.096;17.190;2023-02-12T00:25:47;37.60;;;15.15;;
21927;SDS011;11128;51.096;17.190;2023-02-12T00:30:48;25.55;;;13.07;;
21927;SDS011;11128;51.096;17.190;2023-02-12T00:35:56;35.72;;;14.45;;
21927;SDS011;11128;51.096;17.190;2023-02-12T00:40:57;33.17;;;13.75;;
21927;SDS011;11128;51.096;17.190;2023-02-12T00:45:59;27.70;;;13.80;;
21927;SDS011;11128;51.096;17.190;2023-02-12T00:51:00;28.27;;;13.90;;
21927;SDS011;11128;51.096;17.190;2023-02-12T00:56:02;26.67;;;13.18;;
21927;SDS011;11128;51.096;17.190;2023-02-12T01:01:04;25.23;;;12.93;;
21927;SDS011;11128;51.096;17.190;2023-02-12T01:06:07;34.50;;;13.13;;
21927;SDS011;11128;51.096;17.190;2023-02-12T01:11:10;28.67;;;12.70;;
21927;SDS011;11128;51.096;17.190;2023-02-12T01:16:15;30.05;;;13.43;;
21927;SDS011;11128;51.096;17.190;2023-02-12T01:21:19;32.38;;;12.75;;
21927;SDS011;11128;51.096;17.190;2023-02-12T01:26:23;25.50;;;13.57;;
21927;SDS011;11128;51.096;17.190;2023-02-12T01:31:25;34.00;;;13.77;;
21927;SDS011;11128;51.096;17.190;2023-02-12T01:36:29;31.92;;;12.57;;
21927;SDS011;11128;51.096;17.190;2023-02-12T01:41:32;24.58;;;12.75;;
21927;SDS011;11128;51.096;17.190;2023-02-12T01:46:36;29.45;;;13.20;;
21927;SDS011;11128;51.096;17.190;2023-02-12T01:51:38;29.83;;;14.13;;
21927;SDS011;11128;51.096;17.190;2023-02-12T01:56:40;27.85;;;13.05;;
21927;SDS011;11128;51.096;17.190;2023-02-12T02:01:42;28.70;;;12.68;;
21927;SDS011;11128;51.096;17.190;2023-02-12T02:07:00;31.80;;;13.65;;
21927;SDS011;11128;51.096;17.190;2023-02-12T02:12:04;30.83;;;13.38;;
21927;SDS011;11128;51.096;17.190;2023-02-12T02:23:08;27.35;;;13.23;;
21927;SDS011;11128;51.096;17.190;2023-02-12T02:33:35;32.67;;;13.25;;
21927;SDS011;11128;51.096;17.190;2023-02-12T02:38:54;27.85;;;12.68;;
21927;SDS011;11128;51.096;17.190;2023-02-12T02:43:58;26.15;;;12.20;;
21927;SDS011;11128;51.096;17.190;2023-02-12T02:49:09;26.90;;;11.65;;
21927;SDS011;11128;51.096;17.190;2023-02-12T02:54:18;28.97;;;11.63;;
21927;SDS011;11128;51.096;17.190;2023-02-12T02:59:27;20.58;;;9.57;;
21927;SDS011;11128;51.096;17.190;2023-02-12T03:04:35;29.33;;;10.65;;
21927;SDS011;11128;51.096;17.190;2023-02-12T03:15:03;26.00;;;10.27;;
21927;SDS011;11128;51.096;17.190;2023-02-12T03:25:33;28.10;;;10.35;;
21927;SDS011;11128;51.096;17.190;2023-02-12T03:30:44;25.50;;;9.38;;
21927;SDS011;11128;51.096;17.190;2023-02-12T03:35:58;24.40;;;9.73;;
21927;SDS011;11128;51.096;17.190;2023-02-12T03:41:11;24.83;;;10.65;;
21927;SDS011;11128;51.096;17.190;2023-02-12T03:46:27;23.90;;;10.35;;
21927;SDS011;11128;51.096;17.190;2023-02-12T03:51:39;25.75;;;9.95;;
21927;SDS011;11128;51.096;17.190;2023-02-12T03:56:45;26.27;;;11.30;;
21927;SDS011;11128;51.096;17.190;2023-02-12T04:02:08;23.50;;;10.20;;
21927;SDS011;11128;51.096;17.190;2023-02-12T04:07:10;28.20;;;9.68;;
21927;SDS011;11128;51.096;17.190;2023-02-12T04:33:44;27.25;;;10.73;;
21927;SDS011;11128;51.096;17.190;2023-02-12T04:38:57;27.65;;;10.45;;
21927;SDS011;11128;51.096;17.190;2023-02-12T04:44:21;29.88;;;9.70;;
21927;SDS011;11128;51.096;17.190;2023-02-12T04:49:25;29.10;;;10.30;;
21927;SDS011;11128;51.096;17.190;2023-02-12T04:54:27;30.55;;;10.18;;
21927;SDS011;11128;51.096;17.190;2023-02-12T04:59:29;31.67;;;9.93;;
21927;SDS011;11128;51.096;17.190;2023-02-12T05:04:30;32.17;;;10.18;;
21927;SDS011;11128;51.096;17.190;2023-02-12T05:09:31;30.92;;;10.63;;
21927;SDS011;11128;51.096;17.190;2023-02-12T05:14:33;31.95;;;11.10;;
21927;SDS011;11128;51.096;17.190;2023-02-12T05:19:34;32.45;;;10.38;;
21927;SDS011;11128;51.096;17.190;2023-02-12T05:24:36;27.08;;;9.80;;
21927;SDS011;11128;51.096;17.190;2023-02-12T05:29:37;35.95;;;12.35;;
21927;SDS011;11128;51.096;17.190;2023-02-12T05:34:39;35.10;;;10.90;;
21927;SDS011;11128;51.096;17.190;2023-02-12T05:39:40;37.65;;;11.40;;
21927;SDS011;11128;51.096;17.190;2023-02-12T05:44:43;37.05;;;11.40;;
21927;SDS011;11128;51.096;17.190;2023-02-12T05:49:44;38.85;;;13.05;;
21927;SDS011;11128;51.096;17.190;2023-02-12T05:54:47;31.58;;;10.85;;
21927;SDS011;11128;51.096;17.190;2023-02-12T05:59:49;36.15;;;13.60;;
21927;SDS011;11128;51.096;17.190;2023-02-12T06:04:51;36.67;;;12.70;;
21927;SDS011;11128;51.096;17.190;2023-02-12T06:09:52;30.23;;;12.77;;
21927;SDS011;11128;51.096;17.190;2023-02-12T06:14:54;40.28;;;12.98;;
21927;SDS011;11128;51.096;17.190;2023-02-12T06:19:56;31.40;;;12.35;;
21927;SDS011;11128;51.096;17.190;2023-02-12T06:24:57;29.50;;;11.30;;
21927;SDS011;11128;51.096;17.190;2023-02-12T06:29:58;30.73;;;10.93;;
21927;SDS011;11128;51.096;17.190;2023-02-12T06:35:00;34.67;;;12.48;;
21927;SDS011;11128;51.096;17.190;2023-02-12T06:40:02;39.28;;;13.27;;
21927;SDS011;11128;51.096;17.190;2023-02-12T06:45:04;41.22;;;12.05;;
21927;SDS011;11128;51.096;17.190;2023-02-12T06:50:06;33.22;;;12.40;;
21927;SDS011;11128;51.096;17.190;2023-02-12T06:55:08;31.13;;;12.10;;
21927;SDS011;11128;51.096;17.190;2023-02-12T07:00:09;36.13;;;11.57;;
21927;SDS011;11128;51.096;17.190;2023-02-12T07:05:11;34.60;;;11.45;;
21927;SDS011;11128;51.096;17.190;2023-02-12T07:10:13;43.85;;;12.25;;
21927;SDS011;11128;51.096;17.190;2023-02-12T07:15:14;35.20;;;12.63;;
21927;SDS011;11128;51.096;17.190;2023-02-12T07:20:16;36.92;;;11.80;;
21927;SDS011;11128;51.096;17.190;2023-02-12T07:25:18;37.50;;;11.82;;
21927;SDS011;11128;51.096;17.190;2023-02-12T07:30:19;42.55;;;12.70;;
21927;SDS011;11128;51.096;17.190;2023-02-12T07:35:20;40.10;;;13.07;;
21927;SDS011;11128;51.096;17.190;2023-02-12T07:40:22;34.10;;;13.20;;
21927;SDS011;11128;51.096;17.190;2023-02-12T07:45:25;37.13;;;12.13;;
21927;SDS011;11128;51.096;17.190;2023-02-12T07:50:28;36.17;;;13.20;;
21927;SDS011;11128;51.096;17.190;2023-02-12T07:55:29;33.15;;;12.13;;
21927;SDS011;11128;51.096;17.190;2023-02-12T08:00:30;26.70;;;11.60;;
21927;SDS011;11128;51.096;17.190;2023-02-12T08:05:32;44.53;;;13.70;;
21927;SDS011;11128;51.096;17.190;2023-02-12T08:10:33;34.60;;;14.57;;
21927;SDS011;11128;51.096;17.190;2023-02-12T08:15:35;37.42;;;14.50;;
21927;SDS011;11128;51.096;17.190;2023-02-12T08:20:36;35.97;;;12.65;;
21927;SDS011;11128;51.096;17.190;2023-02-12T08:25:38;31.05;;;12.63;;
21927;SDS011;11128;51.096;17.190;2023-02-12T08:30:39;30.67;;;10.70;;
21927;SDS011;11128;51.096;17.190;2023-02-12T08:35:41;25.33;;;10.18;;
21927;SDS011;11128;51.096;17.190;2023-02-12T08:40:42;25.77;;;10.20;;
21927;SDS011;11128;51.096;17.190;2023-02-12T08:45:44;31.70;;;9.35;;
21927;SDS011;11128;51.096;17.190;2023-02-12T08:50:45;28.85;;;10.20;;
21927;SDS011;11128;51.096;17.190;2023-02-12T08:55:48;27.58;;;10.25;;
21927;SDS011;11128;51.096;17.190;2023-02-12T09:00:50;29.17;;;10.25;;
21927;SDS011;11128;51.096;17.190;2023-02-12T09:05:51;42.30;;;10.52;;
21927;SDS011;11128;51.096;17.190;2023-02-12T09:10:53;27.73;;;10.48;;
21927;SDS011;11128;51.096;17.190;2023-02-12T09:15:54;26.98;;;9.50;;
21927;SDS011;11128;51.096;17.190;2023-02-12T09:20:59;19.38;;;8.82;;
21927;SDS011;11128;51.096;17.190;2023-02-12T09:26:06;27.67;;;9.47;;
21927;SDS011;11128;51.096;17.190;2023-02-12T09:31:10;26.77;;;10.30;;
21927;SDS011;11128;51.096;17.190;2023-02-12T09:36:14;28.25;;;9.63;;
21927;SDS011;11128;51.096;17.190;2023-02-12T09:46:57;26.50;;;9.93;;
21927;SDS011;11128;51.096;17.190;2023-02-12T09:52:03;20.70;;;8.57;;
21927;SDS011;11128;51.096;17.190;2023-02-12T09:57:11;23.23;;;9.73;;
21927;SDS011;11128;51.096;17.190;2023-02-12T10:02:18;23.08;;;8.10;;
21927;SDS011;11128;51.096;17.190;2023-02-12T10:12:53;26.53;;;6.73;;
21927;SDS011;11128;51.096;17.190;2023-02-12T10:29:03;14.63;;;5.93;;
21927;SDS011;11128;51.096;17.190;2023-02-12T10:34:15;13.75;;;5.40;;
21927;SDS011;11128;51.096;17.190;2023-02-12T10:39:24;20.60;;;6.88;;
21927;SDS011;11128;51.096;17.190;2023-02-12T10:44:29;16.55;;;8.02;;
21927;SDS011;11128;51.096;17.190;2023-02-12T10:49:31;21.98;;;7.45;;
21927;SDS011;11128;51.096;17.190;2023-02-12T10:59:40;23.15;;;7.45;;
21927;SDS011;11128;51.096;17.190;2023-02-12T11:04:43;19.02;;;7.72;;
21927;SDS011;11128;51.096;17.190;2023-02-12T11:09:46;27.05;;;8.32;;
21927;SDS011;11128;51.096;17.190;2023-02-12T11:14:50;19.15;;;7.13;;
21927;SDS011;11128;51.096;17.190;2023-02-12T11:20:01;17.95;;;7.40;;
21927;SDS011;11128;51.096;17.190;2023-02-12T11:25:13;17.42;;;6.60;;
21927;SDS011;11128;51.096;17.190;2023-02-12T11:30:20;19.63;;;7.15;;
21927;SDS011;11128;51.096;17.190;2023-02-12T11:35:22;24.60;;;7.18;;
21927;SDS011;11128;51.096;17.190;2023-02-12T11:40:28;25.63;;;6.43;;
21927;SDS011;11128;51.096;17.190;2023-02-12T11:45:43;20.95;;;6.70;;
21927;SDS011;11128;51.096;17.190;2023-02-12T11:50:49;15.65;;;5.32;;
21927;SDS011;11128;51.096;17.190;2023-02-12T11:55:53;18.77;;;5.95;;
21927;SDS011;11128;51.096;17.190;2023-02-12T12:06:30;17.08;;;4.68;;
21927;SDS011;11128;51.096;17.190;2023-02-12T12:11:52;17.47;;;4.80;;
21927;SDS011;11128;51.096;17.190;2023-02-12T12:17:10;11.18;;;3.90;;
21927;SDS011;11128;51.096;17.190;2023-02-12T12:33:45;10.82;;;3.47;;
21927;SDS011;11128;51.096;17.190;2023-02-12T12:44:35;11.90;;;3.75;;
21927;SDS011;11128;51.096;17.190;2023-02-12T12:50:00;8.40;;;3.17;;
21927;SDS011;11128;51.096;17.190;2023-02-12T12:55:34;9.98;;;3.30;;
21927;SDS011;11128;51.096;17.190;2023-02-12T13:01:09;12.95;;;3.40;;
21927;SDS011;11128;51.096;17.190;2023-02-12T13:17:19;12.23;;;3.72;;
21927;SDS011;11128;51.096;17.190;2023-02-12T13:27:35;12.40;;;4.18;;
21927;SDS011;11128;51.096;17.190;2023-02-12T13:32:41;9.50;;;3.45;;
21927;SDS011;11128;51.096;17.190;2023-02-12T13:37:46;11.32;;;3.38;;
21927;SDS011;11128;51.096;17.190;2023-02-12T13:42:56;10.18;;;2.90;;
21927;SDS011;11128;51.096;17.190;2023-02-12T13:53:22;9.38;;;3.25;;
21927;SDS011;11128;51.096;17.190;2023-02-12T14:03:39;8.05;;;3.30;;
21927;SDS011;11128;51.096;17.190;2023-02-12T14:08:41;10.60;;;2.95;;
21927;SDS011;11128;51.096;17.190;2023-02-12T14:29:37;12.38;;;2.78;;
21927;SDS011;11128;51.096;17.190;2023-02-12T14:34:39;9.82;;;2.70;;
21927;SDS011;11128;51.096;17.190;2023-02-12T14:39:40;6.90;;;2.22;;
21927;SDS011;11128;51.096;17.190;2023-02-12T14:44:46;13.52;;;2.47;;
21927;SDS011;11128;51.096;17.190;2023-02-12T14:49:54;8.68;;;2.28;;
21927;SDS011;11128;51.096;17.190;2023-02-12T14:55:02;6.80;;;2.10;;
21927;SDS011;11128;51.096;17.190;2023-02-12T15:05:21;7.88;;;2.13;;
21927;SDS011;11128;51.096;17.190;2023-02-12T15:10:33;12.05;;;2.28;;
21927;SDS011;11128;51.096;17.190;2023-02-12T15:15:43;9.65;;;2.60;;
21927;SDS011;11128;51.096;17.190;2023-02-12T15:20:58;12.50;;;2.50;;
21927;SDS011;11128;51.096;17.190;2023-02-12T15:26:05;10.23;;;3.05;;
21927;SDS011;11128;51.096;17.190;2023-02-12T15:31:19;16.20;;;2.60;;
21927;SDS011;11128;51.096;17.190;2023-02-12T15:36:26;8.30;;;2.63;;
21927;SDS011;11128;51.096;17.190;2023-02-12T15:46:33;12.18;;;3.03;;
21927;SDS011;11128;51.096;17.190;2023-02-12T15:51:36;10.00;;;3.28;;
21927;SDS011;11128;51.096;17.190;2023-02-12T15:56:43;16.02;;;3.95;;
21927;SDS011;11128;51.096;17.190;2023-02-12T16:01:51;12.05;;;3.78;;
21927;SDS011;11128;51.096;17.190;2023-02-12T16:06:58;17.77;;;6.55;;
21927;SDS011;11128;51.096;17.190;2023-02-12T16:12:01;15.95;;;6.65;;
21927;SDS011;11128;51.096;17.190;2023-02-12T16:17:16;21.95;;;5.78;;
21927;SDS011;11128;51.096;17.190;2023-02-12T16:22:22;17.50;;;6.35;;
21927;SDS011;11128;51.096;17.190;2023-02-12T16:27:32;19.02;;;5.22;;
21927;SDS011;11128;51.096;17.190;2023-02-12T16:32:38;9.50;;;4.50;;
21927;SDS011;11128;51.096;17.190;2023-02-12T16:37:45;14.00;;;4.63;;
21927;SDS011;11128;51.096;17.190;2023-02-12T16:47:51;18.85;;;6.63;;
21927;SDS011;11128;51.096;17.190;2023-02-12T16:53:00;8.63;;;4.13;;
21927;SDS011;11128;51.096;17.190;2023-02-12T17:08:17;37.78;;;13.10;;
21927;SDS011;11128;51.096;17.190;2023-02-12T17:13:20;49.55;;;19.40;;
21927;SDS011;11128;51.096;17.190;2023-02-12T17:18:22;44.42;;;17.83;;
21927;SDS011;11128;51.096;17.190;2023-02-12T17:23:28;55.20;;;19.73;;
21927;SDS011;11128;51.096;17.190;2023-02-12T17:28:30;41.33;;;17.40;;
21927;SDS011;11128;51.096;17.190;2023-02-12T17:33:32;53.72;;;19.45;;
21927;SDS011;11128;51.096;17.190;2023-02-12T17:38:33;40.63;;;13.88;;
21927;SDS011;11128;51.096;17.190;2023-02-12T17:43:34;33.17;;;11.05;;
21927;SDS011;11128;51.096;17.190;2023-02-12T17:48:36;34.80;;;15.63;;
21927;SDS011;11128;51.096;17.190;2023-02-12T17:53:37;36.58;;;14.70;;
21927;SDS011;11128;51.096;17.190;2023-02-12T17:58:39;26.15;;;15.23;;
21927;SDS011;11128;51.096;17.190;2023-02-12T18:03:42;22.33;;;11.57;;
21927;SDS011;11128;51.096;17.190;2023-02-12T18:08:43;32.75;;;12.82;;
21927;SDS011;11128;51.096;17.190;2023-02-12T18:13:45;98.72;;;34.15;;
21927;SDS011;11128;51.096;17.190;2023-02-12T18:18:47;90.43;;;33.78;;
21927;SDS011;11128;51.096;17.190;2023-02-12T18:23:48;21.67;;;9.13;;
21927;SDS011;11128;51.096;17.190;2023-02-12T18:28:50;18.65;;;8.68;;
21927;SDS011;11128;51.096;17.190;2023-02-12T18:33:53;21.55;;;9.10;;
21927;SDS011;11128;51.096;17.190;2023-02-12T18:38:54;27.50;;;9.43;;
21927;SDS011;11128;51.096;17.190;2023-02-12T18:43:56;21.92;;;9.00;;
21927;SDS011;11128;51.096;17.190;2023-02-12T18:48:59;25.00;;;9.57;;
21927;SDS011;11128;51.096;17.190;2023-02-12T18:54:02;34.35;;;10.80;;
21927;SDS011;11128;51.096;17.190;2023-02-12T18:59:05;27.48;;;11.18;;
21927;SDS011;11128;51.096;17.190;2023-02-12T19:04:12;29.38;;;11.35;;
21927;SDS011;11128;51.096;17.190;2023-02-12T19:09:16;39.58;;;11.05;;
21927;SDS011;11128;51.096;17.190;2023-02-12T19:14:20;22.35;;;10.00;;
21927;SDS011;11128;51.096;17.190;2023-02-12T19:19:22;33.42;;;11.45;;
21927;SDS011;11128;51.096;17.190;2023-02-12T19:24:24;39.13;;;11.30;;
21927;SDS011;11128;51.096;17.190;2023-02-12T19:29:26;56.65;;;15.98;;
21927;SDS011;11128;51.096;17.190;2023-02-12T19:34:27;43.35;;;14.20;;
21927;SDS011;11128;51.096;17.190;2023-02-12T19:39:29;34.40;;;12.63;;
21927;SDS011;11128;51.096;17.190;2023-02-12T19:44:32;32.05;;;12.63;;
21927;SDS011;11128;51.096;17.190;2023-02-12T19:49:33;32.70;;;10.93;;
21927;SDS011;11128;51.096;17.190;2023-02-12T19:54:35;28.55;;;10.75;;
21927;SDS011;11128;51.096;17.190;2023-02-12T19:59:36;27.65;;;11.68;;
21927;SDS011;11128;51.096;17.190;2023-02-12T20:04:38;32.72;;;11.80;;
21927;SDS011;11128;51.096;17.190;2023-02-12T20:09:39;29.45;;;11.23;;
21927;SDS011;11128;51.096;17.190;2023-02-12T20:14:41;37.25;;;12.50;;
21927;SDS011;11128;51.096;17.190;2023-02-12T20:19:43;43.50;;;14.75;;
21927;SDS011;11128;51.096;17.190;2023-02-12T20:24:44;33.00;;;12.57;;
21927;SDS011;11128;51.096;17.190;2023-02-12T20:29:45;38.15;;;13.18;;
21927;SDS011;11128;51.096;17.190;2023-02-12T20:34:49;39.58;;;13.77;;
21927;SDS011;11128;51.096;17.190;2023-02-12T20:39:51;37.65;;;13.80;;
21927;SDS011;11128;51.096;17.190;2023-02-12T20:44:52;34.15;;;12.70;;
21927;SDS011;11128;51.096;17.190;2023-02-12T20:49:54;38.17;;;15.30;;
21927;SDS011;11128;51.096;17.190;2023-02-12T20:54:56;31.70;;;11.75;;
21927;SDS011;11128;51.096;17.190;2023-02-12T20:59:57;41.70;;;14.48;;
21927;SDS011;11128;51.096;17.190;2023-02-12T21:04:59;31.02;;;12.43;;
21927;SDS011;11128;51.096;17.190;2023-02-12T21:10:00;33.47;;;13.23;;
21927;SDS011;11128;51.096;17.190;2023-02-12T21:15:02;33.60;;;13.95;;
21927;SDS011;11128;51.096;17.190;2023-02-12T21:20:04;30.92;;;11.70;;
21927;SDS011;11128;51.096;17.190;2023-02-12T21:25:06;30.90;;;13.50;;
21927;SDS011;11128;51.096;17.190;2023-02-12T21:30:08;32.80;;;12.35;;
21927;SDS011;11128;51.096;17.190;2023-02-12T21:35:09;24.58;;;11.75;;
21927;SDS011;11128;51.096;17.190;2023-02-12T21:40:10;30.85;;;12.00;;
21927;SDS011;11128;51.096;17.190;2023-02-12T21:45:12;36.05;;;12.73;;
21927;SDS011;11128;51.096;17.190;2023-02-12T21:50:13;30.27;;;12.00;;
21927;SDS011;11128;51.096;17.190;2023-02-12T21:55:14;32.30;;;12.77;;
21927;SDS011;11128;51.096;17.190;2023-02-12T22:00:15;34.53;;;12.85;;
21927;SDS011;11128;51.096;17.190;2023-02-12T22:05:17;29.23;;;11.88;;
21927;SDS011;11128;51.096;17.190;2023-02-12T22:10:18;37.97;;;12.55;;
21927;SDS011;11128;51.096;17.190;2023-02-12T22:15:20;37.25;;;13.75;;
21927;SDS011;11128;51.096;17.190;2023-02-12T22:20:21;37.28;;;12.70;;
21927;SDS011;11128;51.096;17.190;2023-02-12T22:25:22;34.25;;;13.50;;
21927;SDS011;11128;51.096;17.190;2023-02-12T22:30:23;36.78;;;13.13;;
21927;SDS011;11128;51.096;17.190;2023-02-12T22:35:24;36.50;;;13.25;;
21927;SDS011;11128;51.096;17.190;2023-02-12T22:40:26;35.30;;;13.43;;
21927;SDS011;11128;51.096;17.190;2023-02-12T22:45:27;28.08;;;12.88;;
21927;SDS011;11128;51.096;17.190;2023-02-12T22:50:28;25.98;;;11.73;;
21927;SDS011;11128;51.096;17.190;2023-02-12T22:55:29;31.10;;;12.52;;
21927;SDS011;11128;51.096;17.190;2023-02-12T23:00:31;28.27;;;11.60;;
21927;SDS011;11128;51.096;17.190;2023-02-12T23:05:36;35.50;;;11.80;;
21927;SDS011;11128;51.096;17.190;2023-02-12T23:10:38;39.17;;;12.82;;
21927;SDS011;11128;51.096;17.190;2023-02-12T23:15:39;29.80;;;11.65;;
21927;SDS011;11128;51.096;17.190;2023-02-12T23:20:41;34.63;;;13.15;;
21927;SDS011;11128;51.096;17.190;2023-02-12T23:25:42;32.60;;;12.43;;
21927;SDS011;11128;51.096;17.190;2023-02-12T23:30:43;30.50;;;11.60;;
21927;SDS011;11128;51.096;17.190;2023-02-12T23:35:46;32.08;;;12.07;;
21927;SDS011;11128;51.096;17.190;2023-02-12T23:40:48;33.28;;;12.52;;
21927;SDS011;11128;51.096;17.190;2023-02-12T23:45:49;29.48;;;12.25;;
21927;SDS011;11128;51.096;17.190;2023-02-12T23:50:51;32.40;;;12.88;;
21927;SDS011;11128;51.096;17.190;2023-02-12T23:55:52;29.80;;;12.90;;
